DADOS METEOROLÓGICOS

ONTEM
Time Temp. Dewp. Hum. Direção Velocidade Wind gust Bar. 1h Prec. 24h Prec.
00:06 14 11.5 85 225 0.6 1.9 1008.4 0.0000 0.0000
00:16 13.9 11.4 85 270 0.6 1.7 1008.4 0.0000 0.0000
00:26 13.9 11.4 85 225 0.6 1.7 1008.4 0.0000 0.0000
00:36 13.8 11.3 85 231 0.6 1.7 1008.3 0.0000 0.0000
00:46 13.8 11.3 85 225 0.6 1.7 1008.4 0.0000 0.0000
00:56 13.7 11.4 86 254 0.6 1.9 1008.2 0.0000 0.0000
01:06 13.6 11.3 86 270 0.6 1.7 1008.2 0.0000 0.0000
01:16 13.5 11.2 86 225 0.6 2.8 1008.2 0.0000 0.0000
01:26 13.4 11.1 86 251 0.6 1.7 1008.3 0.0000 0.0000
01:36 13.4 11.1 86 231 1.1 1.7 1008.2 0.0000 0.0000
01:47 13.3 11 86 270 0.6 1.7 1008.3 0.0000 0.0000
01:57 13.2 10.9 86 239 0.6 1.7 1008.3 0.0000 0.0000
02:06 13.1 10.8 86 270 0.6 1.7 1008.2 0.0000 0.0000
02:16 13 10.7 86 231 1.1 1.7 1008.1 0.0000 0.0000
02:27 13 10.7 86 63 0.6 1.7 1008.2 0.0000 0.0000
02:37 12.9 10.6 86 225 0.6 1.7 1008 0.0000 0.0000
02:47 12.8 10.5 86 225 0.6 1.7 1007.9 0.0000 0.0000
02:57 12.8 10.5 86 315 0.6 1.7 1007.8 0.0000 0.0000
03:07 12.7 10.6 87 101 1.1 1.9 1007.8 0.0000 0.0000
03:17 12.6 10.5 87 90 0.6 1.7 1007.7 0.0000 0.0000
03:27 12.6 10.5 87 90 1.1 1.9 1007.6 0.0000 0.0000
03:38 12.6 10.5 87 225 0.6 1.9 1007.5 0.0000 0.0000
03:48 12.5 10.2 86 216 0.6 1.9 1007.6 0.0000 0.0000
03:57 12.5 10.4 87 49 1.1 1.7 1007.6 0.0000 0.0000
04:07 12.3 10.2 87 18 1.1 1.9 1007.4 0.0000 0.0000
04:18 12.2 10.1 87 315 1.1 2.5 1007.3 0.0000 0.0000
04:28 12.1 10 87 225 1.1 1.9 1007.4 0.0000 0.0000
04:38 12 9.9 87 60 1.1 1.7 1007.5 0.0000 0.0000
04:48 11.9 9.8 87 348 1.1 1.9 1007.3 0.0000 0.0000
04:58 11.9 9.8 87 45 1.1 1.9 1007.4 0.0000 0.0000
05:08 11.8 9.7 87 33 0.6 1.7 1007.2 0.0000 0.0000
05:18 11.8 9.7 87 33 1.1 1.7 1007.3 0.0000 0.0000
05:29 11.7 9.8 88 108 0.6 1.4 1007.2 0.0000 0.0000
05:38 11.6 9.7 88 59 0.6 1.9 1007.1 0.0000 0.0000
05:48 11.5 9.6 88 300 0.6 1.9 1007.2 0.0000 0.0000
05:59 11.5 9.6 88 305 1.1 1.9 1007.1 0.0000 0.0000
06:09 11.4 9.5 88 45 0.6 1.7 1007.2 0.0000 0.0000
06:19 11.3 9.4 88 14 0.6 1.9 1007.2 0.0000 0.0000
06:28 11.3 9.4 88 0 0.6 1.9 1007.3 0.0000 0.0000
06:39 11.3 9.4 88 45 0.6 1.7 1007.2 0.0000 0.0000
06:49 11.2 9.3 88 30 1.1 1.9 1007.4 0.0000 0.0000
06:59 11.1 9.2 88 315 0.6 1.7 1007.5 0.0000 0.0000
07:09 11.1 9.2 88 90 1.1 1.9 1007.5 0.0000 0.0000
07:20 11 9.1 88 151 0.6 1.4 1007.6 0.0000 0.0000
07:29 11 9.3 89 236 1.1 1.9 1007.7 0.0000 0.0000
07:39 11 9.3 89 180 0.6 1.7 1007.7 0.0000 0.0000
07:50 11.1 9.4 89 135 0.6 1.7 1007.8 0.0000 0.0000
08:00 11.3 9.6 89 90 0.6 1.9 1007.8 0.0000 0.0000
08:10 11.4 9.7 89 90 0.6 1.7 1007.9 0.0000 0.0000
08:20 11.6 9.9 89 90 0.6 2.5 1007.7 0.0000 0.0000
08:30 11.8 9.9 88 90 0.6 1.9 1007.6 0.0000 0.0000
08:40 12 10.1 88 64 1.1 2.5 1007.6 0.0000 0.0000
08:50 12.2 10.1 87 53 0.6 3.6 1007.9 0.0000 0.0000
09:01 12.5 10.4 87 56 1.1 1.9 1008 0.0000 0.0000
09:10 12.6 10.5 87 58 1.1 2.5 1008 0.0000 0.0000
09:20 12.9 10.6 86 63 1.1 2.5 1007.8 0.0000 0.0000
09:30 13.1 10.8 86 57 1.1 3.6 1007.9 0.0000 0.0000
09:41 13.3 10.8 85 36 1.1 2.5 1008.1 0.0000 0.0000
09:51 13.6 11.1 85 153 1.1 1.9 1008.1 0.0000 0.0000
10:00 13.8 11.1 84 216 1.1 2.8 1008.3 0.0000 0.0000
10:11 14 11.3 84 225 2.8 4.7 1008.2 0.0000 0.0000
10:21 14.3 11.5 83 224 3.1 7.5 1008.1 0.0000 0.0000
10:31 14.4 11.6 83 230 2.8 7.2 1008.2 0.0000 0.0000
10:41 14.6 11.7 83 233 2.5 5.8 1008.2 0.0000 0.0000
10:51 14.9 11.9 82 232 3.1 6.4 1008.2 0.0000 0.0000
11:01 15.2 12.2 82 225 2.8 6.1 1008.2 0.0000 0.0000
11:11 15.5 12.3 81 219 2.8 6.1 1008.2 0.0000 0.0000
11:22 15.8 12.4 80 220 3.6 7.2 1008.4 0.0000 0.0000
11:32 16.2 12.7 80 208 4.2 8.6 1008.3 0.0000 0.0000
11:41 16.7 12.8 78 212 4.7 10.8 1008.3 0.0000 0.0000
11:51 16.8 12.7 77 203 5 9.7 1008.4 0.0000 0.0000
12:02 17 12.7 76 213 4.7 9.7 1008.5 0.0000 0.0000
12:12 17.2 12.9 76 210 4.4 8.9 1008.5 0.0000 0.0000
12:22 17.5 13.2 76 226 3.6 8.1 1008.5 0.0000 0.0000
12:32 17.6 13.1 75 231 3.1 8.6 1008.2 0.0000 0.0000
12:42 17.7 13 74 254 3.1 6.7 1008.3 0.0000 0.0000
12:52 18 13.5 75 248 3.1 7.8 1008.2 0.0000 0.0000
13:02 18.4 13.3 72 2.5 5 1008.2 0.0000 0.0000
13:09 18.6 13.7 73 23 2.8 9.7 1008.2 0.0000 0.0000
13:19 18.8 13.9 73 3.1 7.5 1008.2 0.0000 0.0000
13:30 19.1 13.9 72 3.3 8.9 1008 0.0000 0.0000
13:39 19.3 13.9 71 25 3.1 6.4 1007.9 0.0000 0.0000
13:44 19.4 13.8 70 43 3.1 9.4 1007.9 0.0000 0.0000
13:56 19.3 13.9 71 349 3.1 9.2 1007.8 0.0000 0.0000
14:06 19.5 13.9 70 18 3.3 6.7 1007.9 0.0000 0.0000
14:17 19.6 13.8 69 36 3.1 7.8 1007.8 0.0000 0.0000
14:26 20 14.1 69 3.1 5.8 1007.8 0.0000 0.0000
14:36 20.3 14 67 345 1.9 5 1007.7 0.0000 0.0000
14:47 20.4 13.8 66 306 2.8 8.6 1007.6 0.0000 0.0000
14:57 20.3 14 67 42 3.3 10.6 1007.7 0.0000 0.0000
15:07 20.5 13.9 66 253 3.1 4.7 1007.3 0.0000 0.0000
15:16 20.6 14 66 258 3.1 4.7 1007.4 0.0000 0.0000
15:27 20.4 13.8 66 261 3.3 5.6 1007.3 0.0000 0.0000
15:37 20.6 14 66 258 3.3 5.8 1007.5 0.0000 0.0000
15:47 20.7 14.1 66 280 3.1 4.7 1007.4 0.0000 0.0000
15:57 20.6 13.6 64 243 3.1 5 1007.3 0.0000 0.0000
16:07 20.9 14.3 66 253 2.8 5 1007.4 0.0000 0.0000
16:17 21.1 14.3 65 262 3.1 5 1007.5 0.0000 0.0000
16:27 21 14.2 65 261 3.3 5 1007.5 0.0000 0.0000
16:38 20.9 13.8 64 21 2.8 6.1 1007.5 0.0000 0.0000
16:48 20.9 14.5 67 38 3.6 6.4 1007.6 0.0000 0.0000
16:57 21.1 14 64 35 3.3 6.7 1007.4 0.0000 0.0000
17:08 21.3 14 63 32 3.6 9.2 1007.5 0.0000 0.0000
17:18 21.9 14.5 63 253 3.3 5.8 1007.5 0.0000 0.0000
17:28 21.9 14.8 64 14 3.6 8.6 1007.5 0.0000 0.0000
17:41 21.3 14.7 66 217 3.3 10.8 1007.6 0.0000 0.0000
17:47 21 14.6 67 215 5.8 16.1 1007.6 0.0000 0.0000
17:56 20.5 14.6 69 225 8.1 15 1007.9 0.0000 0.0000
18:06 20.1 14.5 70 227 4.2 8.6 1007.9 0.0000 0.0000
18:17 19.5 14.5 73 233 4.7 6.7 1007.9 0.0000 0.0000
18:27 18.9 14.4 75 244 1.9 4.7 1008.1 0.0000 0.0000
18:37 18.4 14.3 77 251 0.6 1.9 1008.1 0.0000 0.0000
18:47 18.1 14.2 78 270 0.3 1.1 1008.3 0.0000 0.0000
18:57 17.7 14.2 80 270 0.3 1.1 1008.3 0.0000 0.0000
19:07 17.4 14.1 81 237 0.6 1.7 1008.4 0.0000 0.0000
19:17 17.2 13.9 81 210 0.3 1.1 1008.4 0.0000 0.0000
19:28 17 13.7 81 225 0.3 1.1 1008.5 0.0000 0.0000
19:38 16.9 13.8 82 208 0.3 1.7 1008.7 0.0000 0.0000
19:47 16.8 13.7 82 234 0.3 1.1 1008.8 0.0000 0.0000
19:58 16.6 13.7 83 244 0.6 2.8 1008.9 0.0000 0.0000
20:08 16.3 13.4 83 270 0.6 1.4 1008.9 0.0000 0.0000
20:18 16 13.3 84 237 0.6 1.7 1009.1 0.0000 0.0000
20:28 15.7 13 84 270 0.6 1.4 1009.2 0.0000 0.0000
20:38 15.4 12.9 85 231 0.6 1.4 1009.2 0.0000 0.0000
20:48 15.1 12.8 86 225 0.3 1.4 1009.4 0.0000 0.0000
20:58 14.8 12.5 86 225 0.3 1.7 1009.4 0.0000 0.0000
21:08 14.6 12.5 87 231 0.6 1.4 1009.6 0.0000 0.0000
21:19 14.4 12.3 87 220 0.6 1.7 1009.7 0.0000 0.0000
21:28 14.3 12.3 88 219 1.1 1.9 1009.7 0.0000 0.0000
21:38 14.2 12.2 88 228 1.1 1.9 1009.8 0.0000 0.0000
21:49 13.9 11.9 88 228 1.1 1.9 1009.6 0.0000 0.0000
21:59 13.8 11.8 88 226 1.1 1.7 1009.6 0.0000 0.0000
22:09 13.6 11.8 89 225 1.1 1.9 1009.9 0.0000 0.0000
22:19 13.6 11.8 89 225 1.1 1.9 1010.1 0.0000 0.0000
22:29 13.8 12 89 223 1.1 1.9 1010.1 0.0000 0.0000
22:39 13.9 12.3 90 221 1.1 1.7 1010 0.0000 0.0000
22:49 13.9 12.1 89 210 1.1 1.7 1010.2 0.0000 0.0000
23:00 14 12.2 89 219 1.1 1.9 1010.2 0.0000 0.0000
23:09 14.1 12.5 90 221 1.1 1.9 1010.3 0.0000 0.0000
23:19 14.2 12.4 89 219 1.1 1.7 1010.3 0.0000 0.0000
23:32 14.2 12.4 89 217 0.6 1.7 1010.5 0.0000 0.0000
23:41 14.2 12.4 89 225 1.1 1.7 1010.5 0.0000 0.0000
23:52 14.2 12.4 89 220 0.6 1.7 1010.5 0.0000 0.0000

ESTATÍSTICAS DO DIA

2021-09-19
TEMPERATURA
MÉDIA
15.3
MÁXIMO
21.9
17:18
MÍNIMO
11.0
07:20
PRESSÃO
MÉDIA
1008.2
MÁXIMO
1010.5
23:32
MÍNIMO
1007.1
05:38
P. ORVALHO
MÉDIA
12.0
MÁXIMO
14.8
17:28
MÍNIMO
9.1
07:20
HUMIDADE
MÉDIA
81
MÁXIMO
90
22:39
MÍNIMO
63
17:08
VELOCIDADE DO VENTO
MÉDIA
1.7
MÁXIMO
8.1
17:56
WIND GUST
MÉDIA
3.8
MÁXIMO
16.1
17:47
DIREÇÃO DO VENTO
PREDOMINANTE
SW
44.1%
N
6.3
NE
17.5
E
6.3
SE
2.1
S
1.4
SW
44.1
W
15.4
NW
4.2
PRECIPITAÇÃO
CHUVA HORA
0.0
CHUVA DIA
0.0
TEMPERATURA (°C)
MÍNIMO
11.0
MÁXIMO
21.9
MÉDIA
15.3
PRESSÃO (hpa)
MÍNIMO
1007.1
MÁXIMO
1010.5
MÉDIA
1008.2
DEVICE